Time;durP1;ratioP1;P1;durP2;ratioP2;P2;SDS_P1;SDS_P2;PMS_P1;PMS_P2;Temp;Humidity;BMP_temperature;BMP_pressure;BME280_temperature;BME280_humidity;BME280_pressure;Samples;Min_cycle;Max_cycle;Signal;HPM_P1;HPM_P2
2022/08/11 00:00:32;;;;;;;;;;;;;;;21.19;41.42;100935.13;5111335;27;20121;-77
2022/08/11 00:03:06;;;;;;;4.07;3.30;;;;;;;21.15;41.74;100928.22;5102336;28;19962;-77
2022/08/11 00:05:55;;;;;;;4.55;3.40;;;;;;;21.04;41.81;100917.50;5103366;28;20035;-77
2022/08/11 00:08:27;;;;;;;4.32;3.30;;;;;;;21.02;42.13;100919.47;5103216;27;20039;-74
2022/08/11 00:10:57;;;;;;;4.72;3.05;;;;;;;21.02;41.82;100914.06;5107425;27;20043;-76
2022/08/11 00:13:35;;;;;;;3.53;3.22;;;;;;;21.05;42.07;100919.22;5106011;28;20116;-75
2022/08/11 00:16:09;;;;;;;4.82;3.38;;;;;;;21.04;42.07;100914.81;5106866;27;20632;-77
2022/08/11 00:18:42;;;;;;;5.22;3.58;;;;;;;21.01;42.02;100912.34;5101480;27;20055;-77
2022/08/11 00:21:10;;;;;;;6.68;3.40;;;;;;;20.94;42.56;100913.81;5114357;27;20176;-77
2022/08/11 00:23:42;;;;;;;6.70;3.35;;;;;;;20.91;42.35;100914.09;5102874;27;20075;-77
2022/08/11 00:26:10;;;;;;;5.57;3.80;;;;;;;20.89;42.00;100918.75;5099928;28;20150;-75
2022/08/11 00:28:37;;;;;;;6.18;3.30;;;;;;;20.85;42.44;100922.66;5109959;27;20048;-75
2022/08/11 00:31:19;;;;;;;3.97;3.28;;;;;;;20.73;42.77;100908.38;5106479;28;20074;-77
2022/08/11 00:33:47;;;;;;;4.65;3.47;;;;;;;20.71;42.73;100929.19;5107874;27;20099;-75
2022/08/11 00:36:16;;;;;;;6.32;3.42;;;;;;;20.63;42.38;100910.09;5110952;27;20618;-76
2022/08/11 00:38:52;;;;;;;7.30;3.20;;;;;;;20.68;42.67;100918.66;5108182;27;20047;-76
2022/08/11 00:41:22;;;;;;;4.95;3.20;;;;;;;20.73;42.73;100926.38;5107043;27;20066;-76
2022/08/11 00:44:18;;;;;;;4.28;3.40;;;;;;;20.72;42.61;100922.81;5108496;27;20447;-77
2022/08/11 00:47:09;;;;;;;3.95;3.28;;;;;;;20.61;42.49;100899.47;5106429;27;20059;-76
2022/08/11 00:49:56;;;;;;;7.03;3.30;;;;;;;20.76;42.46;100926.13;5102305;27;20044;-77
2022/08/11 00:52:43;;;;;;;5.53;3.50;;;;;;;20.70;42.41;100918.53;5102950;27;20046;-76
2022/08/11 00:55:21;;;;;;;3.88;3.38;;;;;;;20.44;42.49;100882.97;5105651;27;20186;-77
2022/08/11 00:58:16;;;;;;;8.25;3.22;;;;;;;20.65;42.43;100917.06;5106804;27;20079;-75
2022/08/11 01:01:01;;;;;;;4.10;3.40;;;;;;;20.62;42.49;100917.31;5103391;28;20391;-77
2022/08/11 01:03:46;;;;;;;;;;;;;;;20.63;42.27;100919.00;5106772;27;20044;-75
2022/08/11 01:06:37;;;;;;;4.70;3.50;;;;;;;20.60;42.58;100926.50;5102541;27;19963;-75
2022/08/11 01:09:26;;;;;;;6.25;3.75;;;;;;;20.44;43.03;100899.13;5109776;28;20424;-76
2022/08/11 01:12:14;;;;;;;3.42;3.13;;;;;;;20.50;42.80;100917.44;5107719;28;20100;-76
2022/08/11 01:15:06;;;;;;;3.92;3.47;;;;;;;20.51;42.83;100917.31;5104347;27;20098;-76
2022/08/11 01:18:09;;;;;;;3.45;3.15;;;;;;;20.49;42.99;100929.19;5101416;28;20087;-74
2022/08/11 01:21:06;;;;;;;6.80;3.40;;;;;;;20.45;43.03;100931.28;5110195;27;20044;-77
2022/08/11 01:24:01;;;;;;;3.83;3.10;;;;;;;20.39;42.94;100936.28;5102160;27;20831;-76
2022/08/11 01:26:56;;;;;;;3.92;3.50;;;;;;;20.31;43.29;100936.84;5111665;27;20455;-77
2022/08/11 01:29:25;;;;;;;5.57;3.65;;;;;;;20.24;43.30;100924.88;5102801;27;20045;-75
2022/08/11 01:32:07;;;;;;;3.83;3.05;;;;;;;20.29;43.26;100942.38;5106123;28;20044;-77
2022/08/11 01:35:15;;;;;;;3.90;3.25;;;;;;;20.25;43.39;100934.66;5106058;27;20514;-77
2022/08/11 01:38:19;;;;;;;7.95;3.30;;;;;;;20.20;43.36;100936.84;5092462;28;20111;-78
2022/08/11 01:41:25;;;;;;;4.03;3.63;;;;;;;20.18;43.58;100931.56;5112980;27;20147;-76
2022/08/11 01:47:49;;;;;;;5.80;3.83;;;;;;;20.14;43.56;100934.66;5108922;27;20070;-78
2022/08/11 01:50:22;;;;;;;4.18;3.13;;;;;;;20.10;43.79;100931.34;5106898;27;20457;-76
2022/08/11 01:53:26;;;;;;;6.30;3.20;;;;;;;20.10;43.80;100941.22;5107647;27;20075;-75
2022/08/11 01:56:15;;;;;;;5.85;3.47;;;;;;;20.07;44.13;100930.72;5103933;28;20047;-77
2022/08/11 01:58:52;;;;;;;4.30;3.42;;;;;;;19.89;44.37;100915.03;5105987;28;20048;-76
2022/08/11 02:01:44;;;;;;;3.80;3.47;;;;;;;19.90;44.17;100908.69;5105034;28;20044;-78
2022/08/11 02:04:16;;;;;;;5.00;3.63;;;;;;;20.06;44.12;100937.91;5104967;27;20107;-73
2022/08/11 02:06:57;;;;;;;5.85;3.53;;;;;;;20.06;44.11;100939.75;5106159;28;20047;-78
2022/08/11 02:09:42;;;;;;;4.35;3.75;;;;;;;20.04;44.03;100944.38;5104485;28;20065;-79
2022/08/11 02:12:40;;;;;;;6.20;3.80;;;;;;;20.04;44.00;100944.38;5102452;28;20454;-76
2022/08/11 02:15:27;;;;;;;;;;;;;;;20.03;43.96;100946.22;5105626;28;20462;-74
2022/08/11 02:18:09;;;;;;;6.00;3.78;;;;;;;20.02;43.89;100949.88;5105833;28;19969;-79
2022/08/11 02:23:48;;;;;;;5.70;3.65;;;;;;;20.01;43.88;100936.56;5102217;28;20499;-77
2022/08/11 02:26:38;;;;;;;;;;;;;;;20.06;43.93;100947.81;5108563;28;20043;-76
2022/08/11 02:29:19;;;;;;;4.45;3.40;;;;;;;20.01;44.32;100942.78;5103338;28;20425;-76
2022/08/11 02:35:11;;;;;;;6.25;3.67;;;;;;;19.96;44.13;100937.78;5112408;28;20054;-76
2022/08/11 02:38:06;;;;;;;4.20;3.47;;;;;;;19.96;44.42;100942.31;5104731;28;20730;-76
2022/08/11 02:40:52;;;;;;;3.95;3.42;;;;;;;19.90;44.44;100940.94;5105867;28;20079;-79
2022/08/11 02:43:30;;;;;;;6.32;3.80;;;;;;;19.83;44.47;100939.69;5102104;27;20075;-77
2022/08/11 02:46:17;;;;;;;5.95;3.42;;;;;;;19.76;44.73;100934.91;5106610;27;20107;-73
2022/08/11 02:52:20;;;;;;;4.65;3.50;;;;;;;19.66;45.26;100947.34;5107044;27;20090;-76
2022/08/11 02:55:21;;;;;;;5.90;3.65;;;;;;;19.61;45.33;100945.88;5084316;28;20388;-76
2022/08/11 02:58:25;;;;;;;6.85;4.10;;;;;;;19.58;45.25;100940.72;5105810;27;20074;-74
2022/08/11 03:01:11;;;;;;;6.00;3.70;;;;;;;19.52;45.26;100940.31;5107344;27;20043;-77
2022/08/11 03:04:05;;;;;;;5.05;3.53;;;;;;;19.47;45.34;100939.78;5114432;27;20047;-75
2022/08/11 03:06:48;;;;;;;4.53;3.50;;;;;;;19.44;45.54;100940.88;5120538;27;20051;-77
2022/08/11 03:09:41;;;;;;;4.82;3.45;;;;;;;19.40;45.72;100943.91;5112924;27;20056;-77
2022/08/11 03:18:17;;;;;;;6.65;3.70;;;;;;;19.19;46.18;100933.81;5105320;28;19919;-73
2022/08/11 03:20:57;;;;;;;3.58;3.25;;;;;;;19.14;46.57;100930.59;5117382;27;20052;-76
2022/08/11 03:23:32;;;;;;;4.93;3.80;;;;;;;19.06;46.61;100924.91;5107333;28;20044;-77
2022/08/11 03:26:23;;;;;;;5.13;3.60;;;;;;;19.12;46.72;100931.69;5103388;28;20036;-75
2022/08/11 03:29:03;;;;;;;4.22;3.78;;;;;;;19.12;46.57;100932.53;5104072;27;20423;-76
2022/08/11 03:31:48;;;;;;;5.22;3.80;;;;;;;19.10;46.81;100933.63;5106915;27;20143;-77
2022/08/11 03:34:20;;;;;;;4.30;3.85;;;;;;;19.16;46.83;100939.41;5107392;27;20089;-77
2022/08/11 03:41:41;;;;;;;4.85;3.20;;;;;;;18.99;46.45;100912.94;5105475;27;20040;-77
2022/08/11 03:43:43;;;;;;;4.35;3.78;;;;;;;19.07;46.89;100940.06;5106814;27;20048;-77
2022/08/11 03:46:44;;;;;;;6.25;3.83;;;;;;;19.01;47.17;100937.84;5114721;27;20116;-76
2022/08/11 03:49:28;;;;;;;5.57;3.70;;;;;;;18.77;47.28;100910.09;5112550;27;20490;-75
2022/08/11 03:52:19;;;;;;;4.45;3.67;;;;;;;18.77;47.51;100915.47;5114977;27;20103;-73
2022/08/11 03:55:20;;;;;;;3.80;3.50;;;;;;;18.86;47.30;100931.78;5100386;27;20090;-76
2022/08/11 03:58:28;;;;;;;6.68;3.60;;;;;;;18.84;47.58;100943.59;5102312;28;20048;-78
2022/08/11 04:01:20;;;;;;;7.35;3.55;;;;;;;18.63;47.73;100929.03;5109903;27;20075;-76
2022/08/11 04:04:08;;;;;;;4.30;3.38;;;;;;;18.68;47.92;100951.03;5108750;27;20055;-73
2022/08/11 04:07:09;;;;;;;5.18;3.70;;;;;;;18.60;48.19;100948.88;5103983;27;20052;-76
2022/08/11 04:09:48;;;;;;;4.72;3.67;;;;;;;18.55;48.59;100949.19;5106556;28;20576;-77
2022/08/11 04:12:45;;;;;;;8.18;4.00;;;;;;;18.53;48.33;100947.59;5109271;27;20043;-77
2022/08/11 04:15:59;;;;;;;5.30;3.88;;;;;;;18.51;48.57;100950.38;5111137;27;20050;-74
2022/08/11 04:19:02;;;;;;;8.55;3.75;;;;;;;18.53;48.70;100953.81;5110781;27;20108;-76
2022/08/11 04:21:52;;;;;;;5.72;4.10;;;;;;;18.52;48.86;100953.91;5104243;27;20463;-77
2022/08/11 04:24:56;;;;;;;5.63;3.53;;;;;;;18.49;48.75;100949.63;5093867;28;20143;-77
2022/08/11 04:27:48;;;;;;;4.40;3.60;;;;;;;18.50;48.75;100951.34;5104738;27;20043;-78
2022/08/11 04:30:41;;;;;;;4.68;3.65;;;;;;;18.34;49.17;100928.41;5104557;28;20051;-77
2022/08/11 04:33:53;;;;;;;3.92;3.50;;;;;;;18.48;49.27;100947.91;5105510;27;20467;-76
2022/08/11 04:40:10;;;;;;;4.57;3.53;;;;;;;18.45;49.16;100947.25;5109441;27;20045;-76
2022/08/11 04:46:07;;;;;;;4.18;3.63;;;;;;;18.45;49.12;100942.75;5103261;27;20474;-78
2022/08/11 05:01:47;;;;;;;5.55;3.40;;;;;;;18.50;49.91;100956.69;5103825;27;20085;-77
2022/08/11 05:07:41;;;;;;;8.00;4.05;;;;;;;18.52;49.88;100954.78;5101324;27;20067;-74
2022/08/11 05:10:47;;;;;;;6.97;3.50;;;;;;;18.55;49.91;100959.94;5107333;27;20053;-73
2022/08/11 05:36:26;;;;;;;4.07;3.53;;;;;;;18.92;49.18;100970.72;5101638;27;20080;-75
2022/08/11 05:58:39;;;;;;;8.75;3.70;;;;;;;19.65;47.71;100973.38;5095282;28;20151;-75
2022/08/11 06:01:10;;;;;;;3.95;3.47;;;;;;;19.77;47.28;100983.19;5101071;28;20062;-78
2022/08/11 06:06:27;;;;;;;5.82;3.72;;;;;;;20.00;47.51;100983.22;5098652;28;20509;-79
2022/08/11 06:08:57;;;;;;;4.10;3.70;;;;;;;20.16;47.03;100983.75;5093237;28;20056;-78
2022/08/11 06:11:25;;;;;;;6.10;3.65;;;;;;;20.28;46.48;100982.81;5097194;28;21927;-79
2022/08/11 06:14:11;;;;;;;5.93;3.75;;;;;;;20.44;45.61;100982.50;5099834;28;20071;-75
2022/08/11 06:16:40;;;;;;;4.15;3.60;;;;;;;20.56;45.79;100979.69;5103904;27;20494;-73
2022/08/11 06:19:07;;;;;;;5.65;3.40;;;;;;;20.72;45.30;100981.16;5104015;27;20182;-78
2022/08/11 06:21:35;;;;;;;3.90;3.22;;;;;;;20.96;44.66;100984.56;5101076;28;20101;-78
2022/08/11 06:24:09;;;;;;;6.65;3.75;;;;;;;21.26;43.20;100981.22;5102696;28;20043;-77
2022/08/11 06:26:37;;;;;;;5.88;3.08;;;;;;;21.52;42.96;100973.69;5111369;27;20047;-72
2022/08/11 06:29:25;;;;;;;4.75;3.50;;;;;;;21.90;42.53;100983.94;5128014;27;20541;-72
2022/08/11 06:32:05;;;;;;;5.22;3.20;;;;;;;22.21;42.29;100964.16;5105209;28;20071;-79
2022/08/11 06:35:00;;;;;;;5.55;3.50;;;;;;;22.77;40.96;100979.13;5087343;28;20059;-78
2022/08/11 06:37:59;;;;;;;12.23;4.57;;;;;;;23.19;39.66;100967.16;5079975;28;20057;-78
2022/08/11 06:41:29;;;;;;;5.03;3.28;;;;;;;23.48;39.62;100977.16;5071462;28;20052;-75
2022/08/11 06:44:05;;;;;;;3.40;3.10;;;;;;;23.37;39.05;100976.28;5084877;28;20554;-78
2022/08/11 06:46:37;;;;;;;3.60;3.30;;;;;;;23.27;38.77;100958.38;5073806;28;20072;-78
2022/08/11 06:51:10;;;;;;;4.65;3.40;;;;;;;23.49;38.84;100979.72;5091095;28;20051;-77
2022/08/11 06:52:00;;;;;;;3.72;3.28;;;;;;;23.73;39.23;100982.03;5079047;28;20043;-77
2022/08/11 06:54:35;;;;;;;5.18;3.10;;;;;;;24.04;38.89;100986.28;5083385;28;20060;-78
2022/08/11 07:02:50;;;;;;;4.90;3.05;;;;;;;24.42;36.39;100971.00;5086075;28;20133;-78
2022/08/11 07:05:59;;;;;;;3.65;3.25;;;;;;;24.61;36.53;100973.63;5080422;28;20087;-75
2022/08/11 07:28:54;;;;;;;7.07;3.00;;;;;;;25.03;35.97;100954.19;5071017;28;20049;-78
2022/08/11 07:29:13;;;;;;;6.72;3.35;;;;;;;25.97;33.74;100958.25;5081949;28;20087;-76
2022/08/11 07:31:42;;;;;;;8.82;3.42;;;;;;;26.37;33.61;100975.84;5078692;28;20044;-78
2022/08/11 07:34:20;;;;;;;4.22;2.90;;;;;;;26.57;33.13;100971.03;5097748;28;20537;-78
2022/08/11 07:36:53;;;;;;;4.53;2.88;;;;;;;26.87;33.98;100974.09;5104148;28;20075;-77
2022/08/11 07:39:24;;;;;;;4.90;2.95;;;;;;;26.97;31.97;100975.84;5101167;27;20043;-77
2022/08/11 07:41:53;;;;;;;8.60;3.40;;;;;;;26.77;32.44;100972.47;5096102;27;20043;-78
2022/08/11 07:44:24;;;;;;;4.82;3.10;;;;;;;26.46;33.95;100943.13;5080847;28;20044;-76
2022/08/11 07:52:36;;;;;;;7.22;3.03;;;;;;;27.15;32.62;100963.00;5097772;28;20043;-75
2022/08/11 07:55:12;;;;;;;7.25;3.10;;;;;;;27.36;33.38;100957.97;5103992;28;20122;-77
2022/08/11 08:17:51;;;;;;;6.47;2.90;;;;;;;28.51;30.08;100959.66;5103036;27;20491;-78
2022/08/11 08:20:46;;;;;;;6.10;2.90;;;;;;;28.43;30.33;100965.13;5102705;27;20050;-79
2022/08/11 08:23:13;;;;;;;3.20;2.85;;;;;;;28.42;30.47;100964.28;5098651;28;20081;-77
2022/08/11 08:25:43;;;;;;;4.25;2.83;;;;;;;28.43;30.69;100940.63;5096679;28;20071;-79
2022/08/11 08:28:14;;;;;;;3.58;2.65;;;;;;;28.79;29.84;100963.69;5101030;28;20093;-78
2022/08/11 08:30:51;;;;;;;4.30;2.65;;;;;;;28.94;30.00;100964.66;5099486;28;20578;-76
2022/08/11 08:33:23;;;;;;;3.15;2.72;;;;;;;28.98;30.16;100956.94;5102853;28;20090;-77
2022/08/11 08:36:10;;;;;;;3.72;2.95;;;;;;;28.93;29.07;100941.16;5102879;28;20072;-77
2022/08/11 08:38:41;;;;;;;3.55;2.78;;;;;;;28.91;29.67;100962.28;5099940;28;20062;-77
2022/08/11 08:41:09;;;;;;;7.10;3.10;;;;;;;28.85;29.99;100962.97;5106537;27;20105;-75
2022/08/11 08:43:39;;;;;;;5.13;3.17;;;;;;;28.68;30.04;100957.72;5103177;27;20055;-77
2022/08/11 08:46:20;;;;;;;4.60;2.88;;;;;;;28.46;30.70;100941.13;5110329;27;20044;-77
2022/08/11 08:48:48;;;;;;;4.57;2.55;;;;;;;28.45;30.67;100957.66;5104169;27;20067;-77
2022/08/11 08:51:35;;;;;;;;;;;;;;;28.42;30.63;100960.72;5106125;27;20044;-77
2022/08/11 08:54:32;;;;;;;5.75;2.85;;;;;;;28.33;30.58;100953.59;5114259;27;19962;-74
2022/08/11 08:57:03;;;;;;;6.60;2.92;;;;;;;28.18;30.48;100939.78;5100730;28;20067;-78
2022/08/11 08:59:34;;;;;;;3.80;2.50;;;;;;;28.57;29.94;100948.06;5108271;28;20103;-76
2022/08/11 09:02:16;;;;;;;4.80;2.75;;;;;;;28.71;29.52;100930.97;5109007;27;20380;-78
2022/08/11 09:04:45;;;;;;;4.72;2.92;;;;;;;28.97;29.29;100953.38;5096152;27;20133;-75
2022/08/11 09:07:15;;;;;;;3.30;2.70;;;;;;;29.22;29.29;100958.72;5108004;27;20040;-76
2022/08/11 09:09:44;;;;;;;4.65;2.72;;;;;;;29.37;28.42;100931.50;5119193;28;20048;-75
2022/08/11 09:12:11;;;;;;;5.97;3.00;;;;;;;29.47;28.48;100926.69;5108998;27;20439;-77
2022/08/11 09:15:00;;;;;;;6.30;2.85;;;;;;;29.32;28.81;100932.03;5097193;27;20494;-78
2022/08/11 09:17:30;;;;;;;7.83;2.87;;;;;;;29.41;28.35;100944.66;5097884;27;20157;-77
2022/08/11 09:20:06;;;;;;;6.10;2.65;;;;;;;29.67;29.16;100942.41;5097437;28;22178;-78
2022/08/11 09:28:30;;;;;;;3.65;2.70;;;;;;;28.89;29.12;100898.91;5090925;27;20180;-74
2022/08/11 09:31:00;;;;;;;5.20;3.25;;;;;;;28.81;29.61;100931.63;5106130;28;20317;-77
2022/08/11 09:33:29;;;;;;;3.90;3.05;;;;;;;28.31;30.61;100909.34;5104844;28;20411;-77
2022/08/11 09:40:27;;;;;;;4.88;2.95;;;;;;;28.27;30.50;100917.00;5099941;27;20035;-78
2022/08/11 09:41:33;;;;;;;2.88;2.58;;;;;;;28.06;31.31;100906.63;5096165;27;20074;-79
2022/08/11 09:47:14;;;;;;;3.47;2.45;;;;;;;28.24;28.96;100901.00;5096515;28;20051;-76
2022/08/11 09:49:44;;;;;;;3.63;2.38;;;;;;;28.45;28.62;100903.16;5101331;27;20479;-77
2022/08/11 09:52:13;;;;;;;3.00;2.70;;;;;;;28.44;28.94;100909.63;5096941;28;20052;-79
2022/08/11 09:54:41;;;;;;;7.90;2.60;;;;;;;28.36;29.51;100912.38;5098485;28;20072;-76
2022/08/11 09:59:59;;;;;;;3.65;2.47;;;;;;;28.41;29.37;100910.81;5098381;28;20044;-76
2022/08/11 10:02:50;;;;;;;3.30;2.30;;;;;;;28.56;28.70;100906.34;5099882;28;20414;-75
2022/08/11 10:08:08;;;;;;;3.38;2.22;;;;;;;28.97;27.92;100912.47;5098149;28;20667;-75
2022/08/11 10:10:36;;;;;;;3.60;2.22;;;;;;;29.07;26.84;100889.59;5098211;27;20063;-73
2022/08/11 10:13:09;;;;;;;4.47;2.67;;;;;;;29.19;27.08;100904.50;5100885;28;20048;-76
2022/08/11 10:15:59;;;;;;;4.95;2.58;;;;;;;29.32;26.99;100902.03;5102138;28;20060;-76
2022/08/11 10:18:51;;;;;;;6.65;4.07;;;;;;;29.44;26.74;100903.34;5093423;28;20047;-76
2022/08/11 10:21:29;;;;;;;2.20;2.00;;;;;;;29.45;26.77;100904.19;5093922;28;20047;-75
2022/08/11 10:26:54;;;;;;;4.70;2.30;;;;;;;29.45;26.75;100885.94;5099251;28;20143;-75
2022/08/11 10:35:12;;;;;;;3.35;2.38;;;;;;;29.71;26.21;100871.06;5104026;28;20101;-77
2022/08/11 10:37:41;;;;;;;6.70;2.40;;;;;;;29.83;26.65;100878.63;5112455;28;20082;-77
2022/08/11 10:40:28;;;;;;;3.10;2.17;;;;;;;29.90;26.26;100874.13;5085693;28;20292;-77
2022/08/11 10:43:11;;;;;;;2.42;2.10;;;;;;;29.90;26.17;100870.53;5106041;28;20100;-76
2022/08/11 10:48:33;;;;;;;3.63;2.42;;;;;;;29.42;26.51;100860.91;5101371;28;20089;-78
2022/08/11 10:51:13;;;;;;;3.60;2.42;;;;;;;29.28;27.36;100862.50;5119713;28;20119;-76
2022/08/11 10:59:21;;;;;;;3.95;2.50;;;;;;;28.85;27.22;100850.34;5101574;28;20080;-77
2022/08/11 11:01:49;;;;;;;5.07;2.40;;;;;;;28.88;27.49;100847.28;5100700;28;20055;-77
2022/08/11 11:04:21;;;;;;;2.92;2.20;;;;;;;29.08;27.54;100842.22;5113536;27;20043;-77
2022/08/11 11:06:52;;;;;;;2.53;2.33;;;;;;;29.40;27.29;100843.88;5112797;27;20078;-77
2022/08/11 11:09:19;;;;;;;2.92;2.55;;;;;;;29.52;26.97;100845.97;5110745;27;20135;-76
2022/08/11 11:20:19;;;;;;;3.55;2.40;;;;;;;29.65;27.04;100834.44;5100468;28;20316;-78
2022/08/11 11:23:09;;;;;;;4.07;2.42;;;;;;;29.65;26.37;100810.72;5101847;28;20043;-77
2022/08/11 11:25:39;;;;;;;2.58;2.38;;;;;;;29.74;26.00;100829.75;5104739;27;20679;-76
2022/08/11 11:28:25;;;;;;;4.63;2.00;;;;;;;29.71;25.17;100809.13;5109739;27;20392;-76
2022/08/11 11:31:21;;;;;;;4.15;2.40;;;;;;;29.91;25.29;100823.91;5115299;27;20075;-77
2022/08/11 11:34:06;;;;;;;4.13;2.20;;;;;;;30.04;25.25;100826.06;5112396;28;20415;-76
2022/08/11 11:36:44;;;;;;;4.93;2.38;;;;;;;29.91;24.52;100796.59;5105359;27;20077;-78
2022/08/11 11:39:11;;;;;;;3.55;2.50;;;;;;;30.02;24.68;100809.00;5114545;28;20700;-77
2022/08/11 11:41:41;;;;;;;3.75;2.28;;;;;;;29.85;25.09;100802.00;5110802;27;20104;-77
2022/08/11 11:44:12;;;;;;;3.23;2.80;;;;;;;29.95;25.66;100791.63;5108777;27;20063;-77
2022/08/11 11:46:40;;;;;;;3.00;2.30;;;;;;;30.04;24.99;100796.00;5101612;28;20512;-78
2022/08/11 11:49:08;;;;;;;3.08;2.40;;;;;;;30.08;25.59;100793.72;5115192;27;20114;-76
2022/08/11 11:51:45;;;;;;;5.45;2.95;;;;;;;30.24;25.44;100790.78;5118278;28;20043;-75
2022/08/11 11:54:17;;;;;;;6.28;2.30;;;;;;;30.23;25.16;100784.47;5127876;28;20048;-77
2022/08/11 11:56:45;;;;;;;4.10;2.35;;;;;;;30.25;25.02;100778.81;5098210;27;20503;-77
2022/08/11 12:01:58;;;;;;;2.50;2.03;;;;;;;30.03;25.28;100779.81;5111094;27;20352;-78
2022/08/11 12:04:26;;;;;;;3.80;2.45;;;;;;;30.10;25.04;100772.53;5107482;28;20036;-75
2022/08/11 12:08:08;;;;;;;3.08;2.30;;;;;;;30.13;25.05;100747.59;5103935;27;20139;-77
2022/08/11 12:09:41;;;;;;;5.68;2.67;;;;;;;30.34;25.11;100764.03;5100516;28;20076;-79
2022/08/11 12:14:56;;;;;;;5.10;2.28;;;;;;;30.52;24.06;100760.88;5100259;27;20109;-76
2022/08/11 12:17:23;;;;;;;5.95;2.50;;;;;;;30.48;23.80;100762.31;5104248;27;20072;-78
2022/08/11 12:19:51;;;;;;;5.25;2.85;;;;;;;30.32;23.76;100749.72;5096323;27;20054;-76
2022/08/11 12:27:54;;;;;;;3.40;2.40;;;;;;;30.44;23.85;100730.94;5090992;28;20124;-74
2022/08/11 12:30:21;;;;;;;2.70;2.47;;;;;;;30.41;23.94;100740.34;5105318;27;20078;-75
2022/08/11 12:32:48;;;;;;;4.47;2.58;;;;;;;30.43;23.77;100740.16;5115527;27;20518;-77
2022/08/11 12:35:15;;;;;;;3.25;2.75;;;;;;;30.59;23.57;100731.75;5105641;27;20079;-73
2022/08/11 12:37:46;;;;;;;2.92;2.63;;;;;;;30.74;23.24;100738.00;5090737;27;20080;-73
2022/08/11 12:46:28;;;;;;;2.95;2.53;;;;;;;30.95;22.91;100723.50;5093753;27;20088;-74
2022/08/11 12:51:57;;;;;;;5.18;3.63;;;;;;;30.91;22.89;100723.03;5097302;27;20093;-72
2022/08/11 12:54:56;;;;;;;102.55;53.13;;;;;;;30.81;23.46;100716.22;5103410;27;20051;-71
2022/08/11 13:05:42;;;;;;;4.88;3.28;;;;;;;30.82;23.44;100690.56;5098236;27;20051;-73
2022/08/11 13:08:13;;;;;;;5.10;2.70;;;;;;;30.88;22.57;100695.25;5099310;27;20047;-72
2022/08/11 13:13:28;;;;;;;6.00;4.00;;;;;;;30.79;22.36;100675.41;5090872;28;20040;-72
2022/08/11 13:16:16;;;;;;;4.10;2.60;;;;;;;30.67;22.59;100641.44;5094576;28;20105;-72
2022/08/11 13:18:43;;;;;;;2.80;2.53;;;;;;;30.96;22.15;100689.66;5101179;27;20051;-73
2022/08/11 13:21:13;;;;;;;3.80;2.80;;;;;;;31.10;21.79;100694.22;5099186;27;20039;-73
2022/08/11 13:23:51;;;;;;;3.67;2.88;;;;;;;31.12;22.52;100686.66;5098335;27;20052;-72
2022/08/11 13:26:34;;;;;;;5.85;2.70;;;;;;;31.28;22.01;100694.56;5093073;28;20758;-73
2022/08/11 13:29:23;;;;;;;4.38;2.90;;;;;;;31.38;21.55;100675.88;5110691;27;20051;-73
2022/08/11 13:31:52;;;;;;;3.42;2.50;;;;;;;31.44;21.44;100696.16;5099841;27;20052;-75
2022/08/11 13:34:20;;;;;;;6.97;2.67;;;;;;;31.39;21.46;100687.69;5113722;27;20074;-73
2022/08/11 13:36:50;;;;;;;4.32;2.67;;;;;;;31.41;21.66;100676.53;5105136;27;20536;-75
2022/08/11 13:39:20;;;;;;;4.07;2.17;;;;;;;31.30;21.83;100667.00;5114627;27;20071;-72
2022/08/11 13:41:52;;;;;;;2.60;2.40;;;;;;;31.46;22.14;100679.53;5102733;28;20047;-74
2022/08/11 13:44:19;;;;;;;3.97;2.60;;;;;;;31.44;21.39;100668.78;5098851;28;20052;-74
2022/08/11 13:46:54;;;;;;;4.53;2.47;;;;;;;31.39;21.19;100649.38;5102003;28;20035;-73
2022/08/11 13:49:22;;;;;;;2.90;2.47;;;;;;;31.30;21.59;100667.00;5102003;28;20074;-73
2022/08/11 13:51:51;;;;;;;4.70;2.45;;;;;;;31.32;21.26;100659.44;5103109;27;20101;-75
2022/08/11 13:54:21;;;;;;;2.75;2.55;;;;;;;31.35;21.40;100650.81;5102003;27;20061;-73
2022/08/11 13:56:52;;;;;;;5.15;2.55;;;;;;;31.24;21.44;100663.16;5099037;27;20051;-73
2022/08/11 13:59:21;;;;;;;3.40;2.35;;;;;;;31.14;22.12;100650.91;5103073;27;20044;-75
2022/08/11 14:02:03;;;;;;;5.40;2.40;;;;;;;31.22;22.70;100646.09;5106958;27;20491;-74
2022/08/11 14:04:49;;;;;;;3.00;2.30;;;;;;;31.27;22.44;100634.56;5103510;27;20105;-73
2022/08/11 14:07:21;;;;;;;4.68;2.30;;;;;;;31.39;22.22;100652.97;5100219;28;20086;-73
2022/08/11 14:09:55;;;;;;;2.75;2.35;;;;;;;31.45;22.50;100645.00;5104177;27;20097;-77
2022/08/11 14:15:18;;;;;;;3.38;2.38;;;;;;;31.63;21.86;100628.88;5099871;28;20039;-75
2022/08/11 14:18:02;;;;;;;5.40;2.80;;;;;;;31.68;22.51;100621.75;5103653;28;20047;-77
2022/08/11 14:23:19;;;;;;;4.07;2.70;;;;;;;31.49;21.67;100617.00;5100716;28;20052;-74
2022/08/11 14:28:33;;;;;;;4.13;2.45;;;;;;;31.50;21.64;100618.69;5102563;28;19923;-73
2022/08/11 14:31:13;;;;;;;3.50;2.28;;;;;;;31.56;21.12;100620.63;5107846;28;20084;-75
2022/08/11 14:33:41;;;;;;;2.53;2.33;;;;;;;31.69;21.38;100623.44;5108525;28;20051;-72
2022/08/11 14:36:33;;;;;;;4.95;2.70;;;;;;;31.80;21.45;100626.69;5101048;28;20059;-73
2022/08/11 14:39:05;;;;;;;3.35;2.40;;;;;;;31.83;21.20;100613.41;5102478;27;20537;-75
2022/08/11 14:47:34;;;;;;;2.55;2.22;;;;;;;32.02;20.80;100606.28;5105466;27;20044;-73
2022/08/11 14:50:03;;;;;;;5.57;2.63;;;;;;;31.77;21.22;100572.31;5107321;28;20043;-74
2022/08/11 14:52:43;;;;;;;3.83;2.70;;;;;;;31.90;21.39;100591.53;5111789;27;20071;-74
2022/08/11 14:57:59;;;;;;;6.10;2.25;;;;;;;31.94;20.62;100582.69;5109092;28;20048;-74
2022/08/11 15:00:26;;;;;;;4.25;2.28;;;;;;;32.00;20.80;100591.97;5107072;28;20044;-73
2022/08/11 15:03:09;;;;;;;5.50;2.60;;;;;;;31.79;20.98;100564.75;5106106;28;20791;-74
2022/08/11 15:05:46;;;;;;;4.97;2.50;;;;;;;31.95;22.71;100586.28;5100133;27;20469;-75
2022/08/11 15:14:01;;;;;;;4.90;2.25;;;;;;;31.69;20.84;100576.06;5110072;27;20089;-78
2022/08/11 15:19:18;;;;;;;3.33;2.28;;;;;;;31.56;21.44;100584.19;5107156;28;20055;-75
2022/08/11 15:24:32;;;;;;;4.03;2.65;;;;;;;31.46;21.03;100565.44;5102593;28;20104;-80
2022/08/11 15:38:18;;;;;;;2.58;2.20;;;;;;;31.39;21.78;100559.06;5096466;27;20160;-76
2022/08/11 15:46:46;;;;;;;4.32;2.17;;;;;;;31.20;21.69;100538.75;5104115;27;20047;-75
2022/08/11 15:49:28;;;;;;;3.70;2.50;;;;;;;31.27;21.22;100541.53;5101447;27;20059;-77
2022/08/11 15:52:22;;;;;;;3.50;2.60;;;;;;;31.21;21.38;100539.59;5094596;27;20052;-75
2022/08/11 15:54:50;;;;;;;4.57;2.42;;;;;;;31.18;21.50;100542.75;5098621;27;20048;-76
2022/08/11 16:05:23;;;;;;;3.67;2.45;;;;;;;31.06;22.61;100534.22;5102496;28;20106;-75
2022/08/11 16:08:14;;;;;;;7.13;2.60;;;;;;;31.01;22.51;100521.16;5097678;27;20044;-79
2022/08/11 16:10:42;;;;;;;4.53;2.40;;;;;;;31.15;22.00;100534.97;5106453;28;20043;-74
2022/08/11 16:18:41;;;;;;;3.20;2.75;;;;;;;31.01;22.22;100518.41;5115602;28;20054;-75
2022/08/11 16:21:12;;;;;;;2.93;2.43;;;;;;;31.00;22.64;100522.22;5109543;28;20463;-77
2022/08/11 16:24:02;;;;;;;3.65;2.75;;;;;;;30.95;22.46;100521.13;5097586;27;20265;-74
2022/08/11 16:26:29;;;;;;;3.50;2.25;;;;;;;31.03;22.57;100512.75;5101810;27;20480;-75
2022/08/11 16:29:18;;;;;;;2.85;2.45;;;;;;;31.19;22.30;100500.66;5102359;28;20046;-75
2022/08/11 16:32:15;;;;;;;2.60;2.40;;;;;;;31.13;22.23;100496.88;5112662;27;20067;-74
2022/08/11 16:40:10;;;;;;;3.33;2.58;;;;;;;30.92;22.93;100497.75;5102708;27;20065;-74
2022/08/11 16:48:27;;;;;;;3.90;2.55;;;;;;;30.87;23.03;100493.94;5105445;28;20484;-74
2022/08/11 16:51:02;;;;;;;;;;;;;;;30.86;22.54;100497.72;5106034;28;20047;-74
2022/08/11 16:53:30;;;;;;;4.10;2.50;;;;;;;30.80;22.47;100493.91;5101312;28;20413;-75
2022/08/11 16:56:26;;;;;;;3.95;2.38;;;;;;;30.70;22.60;100485.22;5090823;28;20043;-75
2022/08/11 16:59:14;;;;;;;3.25;2.60;;;;;;;30.74;22.64;100494.72;5100671;27;20780;-75
2022/08/11 17:01:56;;;;;;;4.78;2.80;;;;;;;30.68;22.90;100482.69;5099875;27;20055;-75
2022/08/11 17:13:39;;;;;;;5.93;2.42;;;;;;;30.78;23.04;100490.53;5089826;28;20137;-75
2022/08/11 17:16:11;;;;;;;5.38;2.50;;;;;;;30.75;22.69;100490.09;5102605;27;20495;-74